1M5

Portland Municipal Airport

Portland, Tennessee, USA
METAR K1M5 170015Z AUTO 26005KT 4SM HZ FEW032 FEW041 SCT049 26/22 A2996 RMK A01
Observed Flight Rules
Jul-17 @ 00:15 UTC (11 minutes ago) Marginal Visual Flight Rules
Wind Visibility Clouds Conditions
260° at 5 knots 4 miles
  • Few at 3,200' AGL
  • Few at 4,100' AGL
  • Scattered at 4,900' AGL
  • Haze
Temperatures Readings
Current 26°C / 79°F
Dewpoint 22°C / 72°F
Humidity 79%
Altimeter 29.96" Hg
Pressure 1015 hPa
Elevation 250
METAR K1M5 170015Z AUTO 26005KT 4SM HZ FEW032 FEW041 SCT049 26/22 A2996 RMK A01
Observed Flight Rules
Jul-17 @ 00:15 UTC
(11 minutes ago)
MVFR
Wind Visibility
260° at 5 knots 4 miles
Clouds
  • Few at 3,200' AGL
  • Few at 4,100' AGL
  • Scattered at 4,900' AGL
Conditions
  • Haze
Temperature Dewpoint
26°C / 79°F 22°C / 72°F
Humidity Altimeter Pressure
79% 29.96" Hg 1015 hPa